< < Back
Terminal Aerodrome Forecast


Current Version              Previous Versions:   1  2  3  4  5  6  7  8  9  

Terminal Aerodrome Forecast

255
FTUS42 KGSP 261720
TAFAND
TAF
KAND 261720Z 2618/2718 08006KT P6SM SCT045
      TEMPO 2620/2622 TS BKN045CB
     FM262200 12005KT P6SM SCT045
     FM270900 VRB03KT 4SM BR FEW045
     FM271300 09006KT P6SM FEW045=



Latest METAR

449
SAUS70 KWBC 271600 RRG
MTRAND
METAR KAND 271556Z AUTO 14005KT 10SM FEW049 FEW060 31/22 A3014 RMK AO2
SLP196 T03060222


USA.gov is the U.S. government's official web portal to all federal, state and local government web resources and services.